Pagina principală
METAR-TAF:

METAR-TAF

Aeroporturi :

Hillsboro, Texas, Statele Unite ale Americii

Latitudine: 32-05N, longitudine: 097-05-50W, elevație: 209 m

Observații meteo curente

Raportul a fost făcut în urmă cu 13 de minute, la 04:55 UTC
Vânt 6 kt de la Est/Sud-est
Temperatură 25°C
Umiditate 74%
Presiune 1013 hPa
Vizibilitate: 16.1 km
Cer senin

METAR: KINJ 190455Z AUTO 11006KT 10SM CLR 25/20 A2991 RMK AO2 T02450200

Ora: 00:08 (05:08 UTC)


TAF: lipsă

Observații și prognoze meteo pentru peste 4.000 de aeroporturi (rapoarte METAR și TAF).

Stațiile disponibile sunt reprezentate pe hartă prin puncte galbene și roșii.

Țineți indicatorul mouse-ului pe punctul dorit pentru a vedea denumirea stației.

Apoi, faceți clic pentru a vedea observațiile și prognozele meteorologice.

Pentru a schimba harta: Pentru mărire, faceți clic pe butoanele verzi cu cruce neagră; pentru micșorare, pe butonul verde cu o liniuță; pentru hărți învecinate, pe săgețile verzi.


METAR-TAF: